Time;durP1;ratioP1;P1;durP2;ratioP2;P2;SDS_P1;SDS_P2;PMS_P1;PMS_P2;Temp;Humidity;BMP_temperature;BMP_pressure;BME280_temperature;BME280_humidity;BME280_pressure;Samples;Min_cycle;Max_cycle;Signal;HPM_P1;HPM_P2
2021/12/16 00:02:01;;;;;;;38.47;25.63;;;12.60;99.90;;;;;;5054893;28;20435;-66
2021/12/16 00:07:42;;;;;;;36.90;23.20;;;12.60;99.90;;;;;;5012109;28;20430;-66
2021/12/16 00:31:48;;;;;;;33.13;24.00;;;12.60;99.90;;;;;;5053503;28;20539;-66
2021/12/16 00:34:16;;;;;;;39.73;24.63;;;12.70;99.90;;;;;;5064083;28;20423;-66
2021/12/16 00:36:45;;;;;;;36.33;23.73;;;12.70;99.90;;;;;;5073147;28;20442;-66
2021/12/16 00:39:22;;;;;;;34.23;24.50;;;12.70;99.90;;;;;;5075304;28;20408;-66
2021/12/16 00:41:52;;;;;;;40.83;25.70;;;12.70;99.90;;;;;;5073198;28;20416;-66
2021/12/16 00:44:36;;;;;;;34.93;24.27;;;12.70;99.90;;;;;;5074805;28;20474;-66
2021/12/16 00:49:49;;;;;;;33.30;22.53;;;12.70;99.90;;;;;;5074363;28;20447;-66
2021/12/16 00:55:45;;;;;;;37.97;24.73;;;12.70;99.90;;;;;;5074961;28;20512;-66
2021/12/16 00:57:58;;;;;;;32.80;23.27;;;12.70;99.90;;;;;;5074625;28;20419;-66
2021/12/16 01:00:27;;;;;;;35.17;24.10;;;12.70;99.90;;;;;;5074292;28;20442;-69
2021/12/16 01:03:03;;;;;;;34.70;23.93;;;12.70;99.90;;;;;;5074808;28;20422;-66
2021/12/16 01:08:34;;;;;;;36.90;24.80;;;12.60;99.90;;;;;;5042777;28;20429;-66
2021/12/16 01:56:54;;;;;;;36.73;26.17;;;12.80;99.90;;;;;;5071570;28;20458;-66
2021/12/16 01:59:22;;;;;;;40.10;26.50;;;12.80;99.90;;;;;;5072779;28;20804;-66
2021/12/16 02:01:48;;;;;;;40.60;26.93;;;12.80;99.90;;;;;;5073326;28;20779;-66
2021/12/16 02:04:41;;;;;;;38.90;26.10;;;12.80;99.90;;;;;;5073536;28;20461;-65
2021/12/16 02:07:11;;;;;;;41.60;25.10;;;12.80;99.90;;;;;;5073293;28;20181;-66
2021/12/16 02:09:44;;;;;;;42.50;26.13;;;12.80;99.90;;;;;;5072399;28;20522;-66
2021/12/16 02:28:53;;;;;;;40.83;27.40;;;12.70;99.90;;;;;;5072413;28;20436;-66
2021/12/16 02:31:51;;;;;;;37.87;25.13;;;12.70;99.90;;;;;;5073344;28;20471;-66
2021/12/16 02:36:45;;;;;;;40.93;26.50;;;12.60;99.90;;;;;;5072290;28;20819;-66
2021/12/16 02:39:28;;;;;;;43.10;27.33;;;12.60;99.90;;;;;;5072816;28;20205;-66
2021/12/16 02:42:06;;;;;;;41.07;27.20;;;12.60;99.90;;;;;;5071774;28;20453;-66
2021/12/16 02:50:01;;;;;;;39.63;25.70;;;12.50;99.90;;;;;;5072958;28;20496;-66
2021/12/16 02:52:29;;;;;;;43.60;28.47;;;12.50;99.90;;;;;;5072829;28;20802;-66
2021/12/16 02:54:55;;;;;;;41.67;26.43;;;12.50;99.90;;;;;;5072013;28;20720;-66
2021/12/16 02:57:21;;;;;;;44.47;26.83;;;12.50;99.90;;;;;;5072889;28;20411;-66
2021/12/16 02:59:48;;;;;;;46.53;27.83;;;12.50;99.90;;;;;;5071460;28;20895;-66
2021/12/16 03:02:18;;;;;;;42.30;25.30;;;12.50;99.90;;;;;;5072880;28;20410;-66
2021/12/16 03:04:46;;;;;;;42.70;27.23;;;12.50;99.90;;;;;;5071616;28;20894;-66
2021/12/16 03:07:14;;;;;;;45.83;28.83;;;12.50;99.90;;;;;;5072282;28;20434;-66
2021/12/16 03:14:58;;;;;;;39.83;27.00;;;12.60;99.90;;;;;;5071391;28;20436;-66
2021/12/16 03:17:37;;;;;;;43.37;27.80;;;12.50;99.90;;;;;;5072616;28;20410;-66
2021/12/16 03:20:21;;;;;;;46.80;27.73;;;12.50;99.90;;;;;;5072310;28;20891;-66
2021/12/16 03:28:59;;;;;;;46.93;28.23;;;12.50;99.90;;;;;;5072343;28;20583;-66
2021/12/16 03:36:36;;;;;;;49.87;29.70;;;12.50;99.90;;;;;;5072658;28;20397;-67
2021/12/16 03:39:08;;;;;;;44.47;29.27;;;12.50;99.90;;;;;;5071446;28;20435;-66
2021/12/16 03:41:34;;;;;;;47.73;28.90;;;12.50;99.90;;;;;;5071518;28;20470;-69
2021/12/16 03:44:05;;;;;;;45.13;28.30;;;12.50;99.90;;;;;;5071486;28;20524;-66
2021/12/16 03:46:36;;;;;;;51.67;31.00;;;12.50;99.90;;;;;;5054180;28;20408;-66
2021/12/16 03:49:11;;;;;;;51.80;29.87;;;12.50;99.90;;;;;;5071591;28;20976;-66
2021/12/16 03:52:00;;;;;;;47.87;27.70;;;12.50;99.90;;;;;;5071432;28;20428;-69
2021/12/16 03:54:33;;;;;;;49.77;28.07;;;12.50;99.90;;;;;;5072118;28;20409;-66
2021/12/16 03:57:04;;;;;;;50.00;29.90;;;12.50;99.90;;;;;;5071620;28;20490;-66
2021/12/16 03:59:33;;;;;;;47.23;28.20;;;12.50;99.90;;;;;;5071879;28;20409;-66
2021/12/16 04:02:02;;;;;;;46.80;27.77;;;12.50;99.90;;;;;;5071213;28;20423;-67
2021/12/16 04:04:28;;;;;;;50.20;29.80;;;12.50;99.90;;;;;;5071631;28;20754;-67
2021/12/16 04:06:56;;;;;;;48.90;27.40;;;12.50;99.90;;;;;;5070656;28;20489;-68
2021/12/16 04:09:22;;;;;;;48.60;29.07;;;12.50;99.90;;;;;;5070676;28;20225;-68
2021/12/16 04:11:56;;;;;;;45.33;26.67;;;12.50;99.90;;;;;;5069741;28;20424;-68
2021/12/16 04:14:22;;;;;;;52.47;29.37;;;12.50;99.90;;;;;;5072082;28;20433;-68
2021/12/16 04:16:51;;;;;;;49.70;29.93;;;12.50;99.90;;;;;;5071123;28;20892;-68
2021/12/16 04:19:21;;;;;;;48.73;28.30;;;12.40;99.90;;;;;;5070508;28;20186;-68
2021/12/16 04:21:52;;;;;;;54.80;30.77;;;12.40;99.90;;;;;;5071101;28;20811;-68
2021/12/16 04:24:19;;;;;;;49.00;29.87;;;12.40;99.90;;;;;;5071885;28;20392;-68
2021/12/16 04:26:47;;;;;;;49.33;29.10;;;12.30;99.90;;;;;;5070699;28;20435;-68
2021/12/16 04:29:13;;;;;;;53.60;29.20;;;12.30;99.90;;;;;;5053631;28;20451;-68
2021/12/16 04:31:40;;;;;;;49.73;28.50;;;12.40;99.90;;;;;;5071150;28;20477;-71
2021/12/16 04:34:07;;;;;;;47.03;28.13;;;12.30;99.90;;;;;;5071182;28;20457;-68
2021/12/16 04:36:34;;;;;;;55.90;28.80;;;12.30;99.90;;;;;;5071775;28;20420;-68
2021/12/16 04:39:01;;;;;;;49.60;27.80;;;12.30;99.90;;;;;;5070694;28;21083;-68
2021/12/16 04:41:27;;;;;;;43.63;27.77;;;12.20;99.90;;;;;;5071691;28;20424;-68
2021/12/16 04:43:55;;;;;;;45.97;27.73;;;12.20;99.90;;;;;;5072339;28;21008;-68
2021/12/16 04:46:27;;;;;;;49.87;26.87;;;12.20;99.90;;;;;;5075151;28;20466;-68
2021/12/16 04:48:55;;;;;;;45.97;27.37;;;12.20;99.90;;;;;;5073149;28;20460;-68
2021/12/16 04:51:23;;;;;;;43.30;26.53;;;12.10;99.90;;;;;;5075286;28;20412;-68
2021/12/16 04:53:49;;;;;;;44.17;27.40;;;12.10;99.90;;;;;;5073190;28;20410;-68
2021/12/16 04:56:17;;;;;;;47.97;26.93;;;12.10;99.90;;;;;;5074168;28;20413;-68
2021/12/16 04:58:46;;;;;;;41.67;25.40;;;12.10;99.90;;;;;;5072754;28;20418;-68
2021/12/16 05:01:12;;;;;;;46.93;26.70;;;12.10;99.90;;;;;;5074640;28;20419;-67
2021/12/16 05:03:38;;;;;;;47.47;26.60;;;12.10;99.90;;;;;;5074793;28;20783;-68
2021/12/16 05:06:05;;;;;;;45.13;26.30;;;12.10;99.90;;;;;;5074248;28;20410;-68
2021/12/16 05:08:31;;;;;;;42.90;25.13;;;12.00;99.90;;;;;;5074711;28;20427;-68
2021/12/16 05:11:00;;;;;;;40.40;26.33;;;12.00;99.90;;;;;;5073779;28;20506;-68
2021/12/16 05:13:27;;;;;;;42.23;26.23;;;12.00;99.90;;;;;;5074927;28;20411;-68
2021/12/16 05:15:56;;;;;;;45.83;26.87;;;11.90;99.90;;;;;;5073730;28;20502;-67
2021/12/16 05:18:30;;;;;;;40.77;26.77;;;12.00;99.90;;;;;;5074426;28;20422;-68
2021/12/16 05:20:57;;;;;;;44.57;25.50;;;12.00;99.90;;;;;;5073667;28;20424;-68
2021/12/16 05:28:55;;;;;;;45.77;25.17;;;12.00;99.90;;;;;;5074148;28;20411;-68
2021/12/16 05:31:27;;;;;;;45.70;25.60;;;12.10;99.90;;;;;;5074600;28;20403;-68
2021/12/16 05:33:54;;;;;;;45.63;24.00;;;12.10;99.90;;;;;;5073747;28;20449;-68
2021/12/16 05:36:20;;;;;;;44.20;24.70;;;12.10;99.90;;;;;;5074446;28;20414;-68
2021/12/16 05:38:46;;;;;;;39.80;25.77;;;12.10;99.90;;;;;;5073577;28;20502;-68
2021/12/16 05:41:17;;;;;;;47.50;25.13;;;12.20;99.90;;;;;;5073127;28;20212;-68
2021/12/16 05:43:43;;;;;;;38.70;23.27;;;12.30;99.90;;;;;;5073598;28;20462;-72
2021/12/16 05:46:11;;;;;;;40.63;24.90;;;12.30;99.90;;;;;;5073896;28;20520;-68
2021/12/16 05:48:41;;;;;;;43.57;25.70;;;12.40;99.90;;;;;;5073603;28;20438;-68
2021/12/16 05:51:12;;;;;;;50.00;27.23;;;12.40;99.90;;;;;;5072187;28;20922;-68
2021/12/16 05:53:38;;;;;;;39.30;25.37;;;12.60;99.90;;;;;;5073796;28;20490;-68
2021/12/16 05:56:05;;;;;;;40.17;27.43;;;12.50;99.90;;;;;;5072515;28;20510;-68
2021/12/16 05:58:31;;;;;;;41.40;26.67;;;12.60;99.90;;;;;;5072805;28;20903;-68
2021/12/16 06:01:05;;;;;;;42.63;26.17;;;12.60;99.90;;;;;;5072604;28;20476;-68
2021/12/16 06:03:32;;;;;;;39.97;26.20;;;12.60;99.90;;;;;;5072540;28;20418;-68
2021/12/16 06:05:58;;;;;;;42.57;26.97;;;12.70;99.90;;;;;;5069424;28;20488;-68
2021/12/16 06:08:24;;;;;;;40.40;24.73;;;12.70;99.90;;;;;;5072621;28;20423;-68
2021/12/16 06:13:34;;;;;;;42.17;24.77;;;12.80;99.90;;;;;;5068730;28;20420;-68
2021/12/16 06:27:14;;;;;;;40.60;24.47;;;12.90;99.90;;;;;;5053075;28;20824;-68
2021/12/16 06:29:47;;;;;;;41.50;24.60;;;12.90;99.90;;;;;;5053415;28;20499;-68
2021/12/16 06:32:14;;;;;;;37.77;23.37;;;13.00;99.90;;;;;;5073033;28;20498;-68
2021/12/16 06:34:41;;;;;;;42.50;25.37;;;13.00;99.90;;;;;;5073083;28;20427;-68
2021/12/16 06:37:07;;;;;;;43.13;25.80;;;13.00;99.90;;;;;;5072843;28;20415;-68
2021/12/16 06:39:33;;;;;;;40.77;25.13;;;13.00;99.90;;;;;;5072975;28;20425;-68
2021/12/16 06:41:59;;;;;;;41.67;25.13;;;13.00;99.90;;;;;;5072080;28;20499;-68
2021/12/16 06:44:31;;;;;;;42.90;25.20;;;13.10;99.90;;;;;;5073219;28;20227;-68
2021/12/16 06:47:04;;;;;;;36.90;25.33;;;13.10;99.90;;;;;;5071065;28;20501;-66
2021/12/16 06:49:31;;;;;;;41.50;23.73;;;12.80;99.90;;;;;;5072875;28;20918;-67
2021/12/16 06:52:04;;;;;;;35.07;24.43;;;13.00;99.90;;;;;;5070780;28;20503;-67
2021/12/16 07:00:09;;;;;;;32.77;22.93;;;13.00;99.90;;;;;;5071904;28;20742;-66
2021/12/16 07:05:12;;;;;;;40.20;23.93;;;13.00;99.90;;;;;;5072169;28;20412;-67
2021/12/16 07:07:38;;;;;;;35.67;22.67;;;13.00;99.90;;;;;;5072775;28;20423;-67
2021/12/16 07:10:07;;;;;;;39.63;24.00;;;13.00;99.90;;;;;;5071987;28;20751;-67
2021/12/16 07:12:37;;;;;;;35.37;22.97;;;12.90;99.90;;;;;;5070690;28;20859;-67
2021/12/16 07:15:10;;;;;;;42.07;24.03;;;12.80;99.90;;;;;;5062875;28;20471;-67
2021/12/16 07:17:38;;;;;;;37.97;24.03;;;12.80;99.90;;;;;;5072432;28;20600;-66
2021/12/16 07:20:06;;;;;;;39.53;24.50;;;12.80;99.90;;;;;;5070879;28;20834;-67
2021/12/16 07:22:33;;;;;;;37.47;24.97;;;12.80;99.90;;;;;;5068899;28;20415;-66
2021/12/16 07:25:01;;;;;;;52.90;23.87;;;12.70;99.90;;;;;;5070858;28;20919;-66
2021/12/16 07:27:27;;;;;;;38.77;22.10;;;12.70;99.90;;;;;;5071134;28;20922;-66
2021/12/16 07:29:53;;;;;;;40.30;23.97;;;12.70;99.90;;;;;;5071330;28;20487;-67
2021/12/16 07:32:19;;;;;;;33.63;21.57;;;12.60;99.90;;;;;;5072389;28;20450;-66
2021/12/16 07:34:44;;;;;;;37.13;23.40;;;12.70;99.90;;;;;;5072346;28;20182;-68
2021/12/16 07:37:10;;;;;;;40.67;23.97;;;12.70;99.90;;;;;;5071262;28;20923;-68
2021/12/16 07:39:41;;;;;;;35.30;22.67;;;13.00;99.90;;;;;;5071304;28;20197;-69
2021/12/16 07:42:10;;;;;;;35.30;23.27;;;13.40;99.90;;;;;;5071342;28;20269;-68
2021/12/16 07:44:36;;;;;;;39.77;24.70;;;13.80;99.90;;;;;;5071859;28;20508;-68
2021/12/16 07:47:06;;;;;;;37.90;23.43;;;14.10;99.90;;;;;;5070544;28;20929;-68
2021/12/16 07:49:35;;;;;;;36.10;23.10;;;14.50;99.90;;;;;;5071818;28;20454;-68
2021/12/16 07:52:04;;;;;;;35.00;24.20;;;14.70;99.90;;;;;;5069616;28;20480;-67
2021/12/16 07:54:30;;;;;;;40.57;25.60;;;14.90;99.90;;;;;;5071967;28;20892;-67
2021/12/16 07:56:57;;;;;;;38.40;25.57;;;14.90;98.40;;;;;;5070981;28;20419;-68
2021/12/16 07:59:25;;;;;;;37.33;23.87;;;14.80;97.70;;;;;;5070134;28;20566;-68
2021/12/16 08:01:51;;;;;;;37.20;24.20;;;14.60;97.90;;;;;;5071078;28;20417;-70
2021/12/16 08:04:23;;;;;;;32.90;22.40;;;14.30;98.40;;;;;;5071984;28;20751;-68
2021/12/16 08:06:51;;;;;;;35.10;23.07;;;14.10;98.90;;;;;;5071511;28;20810;-71
2021/12/16 08:09:18;;;;;;;36.70;24.10;;;13.90;99.40;;;;;;5072031;28;20549;-68
2021/12/16 08:11:46;;;;;;;38.47;24.90;;;13.70;99.80;;;;;;5071311;28;20518;-68
2021/12/16 08:14:12;;;;;;;38.00;24.90;;;13.50;99.90;;;;;;5051101;28;20557;-68
2021/12/16 08:16:38;;;;;;;34.40;23.67;;;13.30;99.90;;;;;;5061193;28;20432;-68
2021/12/16 08:19:07;;;;;;;41.50;25.57;;;13.20;99.90;;;;;;5074148;28;20421;-67
2021/12/16 08:21:34;;;;;;;39.53;24.97;;;13.10;99.90;;;;;;5073650;28;20542;-67
2021/12/16 08:24:03;;;;;;;43.83;25.40;;;13.00;99.90;;;;;;5074641;28;20402;-68
2021/12/16 08:26:37;;;;;;;41.97;27.73;;;12.90;99.90;;;;;;5074159;28;20423;-67
2021/12/16 08:29:04;;;;;;;47.07;27.37;;;12.80;99.90;;;;;;5073285;28;20977;-68
2021/12/16 08:31:30;;;;;;;43.53;26.27;;;12.70;99.90;;;;;;5075112;28;20436;-67
2021/12/16 08:33:57;;;;;;;47.83;26.30;;;12.70;99.90;;;;;;5074444;28;20414;-68
2021/12/16 08:36:23;;;;;;;52.43;30.00;;;12.60;99.90;;;;;;5074180;28;20424;-68
2021/12/16 08:38:50;;;;;;;51.40;27.80;;;12.70;99.90;;;;;;5075373;28;20415;-68
2021/12/16 08:41:24;;;;;;;47.00;26.17;;;12.50;99.90;;;;;;5075748;28;20413;-68
2021/12/16 08:43:51;;;;;;;45.30;26.67;;;12.50;99.90;;;;;;5071678;28;20460;-70
2021/12/16 08:46:21;;;;;;;47.20;26.13;;;12.40;99.90;;;;;;5074411;28;20411;-68
2021/12/16 08:48:48;;;;;;;48.67;26.87;;;12.40;99.90;;;;;;5075634;28;20427;-68
2021/12/16 08:51:17;;;;;;;47.00;27.17;;;12.30;99.90;;;;;;5074431;28;20506;-68
2021/12/16 08:53:43;;;;;;;46.77;26.97;;;12.30;99.90;;;;;;5075483;28;20431;-68
2021/12/16 08:56:09;;;;;;;48.00;27.20;;;12.30;99.90;;;;;;5074579;28;20861;-68
2021/12/16 08:58:37;;;;;;;52.23;27.63;;;12.20;99.90;;;;;;5075133;28;20450;-68
2021/12/16 09:01:25;;;;;;;42.90;26.30;;;12.20;99.90;;;;;;5074775;28;20418;-69
2021/12/16 09:03:53;;;;;;;49.33;27.17;;;12.20;99.90;;;;;;5074909;28;20760;-67
2021/12/16 09:06:19;;;;;;;48.63;27.63;;;12.30;99.90;;;;;;5073976;28;20520;-68
2021/12/16 09:08:45;;;;;;;43.60;27.47;;;12.30;99.90;;;;;;5074700;28;20930;-68
2021/12/16 09:11:18;;;;;;;51.70;29.17;;;12.30;99.90;;;;;;5072684;28;20415;-68
2021/12/16 09:13:44;;;;;;;46.60;27.07;;;12.30;99.90;;;;;;5074831;28;20624;-68
2021/12/16 09:16:14;;;;;;;50.67;27.60;;;12.30;99.90;;;;;;5072673;28;20419;-69
2021/12/16 09:18:42;;;;;;;46.70;26.40;;;12.30;99.90;;;;;;5074782;28;20426;-68
2021/12/16 09:21:18;;;;;;;49.50;27.03;;;12.40;99.90;;;;;;5074402;28;20887;-68
2021/12/16 09:23:49;;;;;;;48.70;27.27;;;12.30;99.90;;;;;;5075020;28;20429;-68
2021/12/16 09:26:16;;;;;;;48.80;26.53;;;12.30;99.90;;;;;;5074499;28;20395;-68
2021/12/16 09:28:44;;;;;;;63.27;30.00;;;12.30;99.90;;;;;;5074360;28;20833;-68
2021/12/16 09:31:13;;;;;;;49.77;28.43;;;12.30;99.90;;;;;;5074262;28;20445;-69
2021/12/16 09:33:43;;;;;;;52.20;29.03;;;12.30;99.90;;;;;;5074503;28;20757;-68
2021/12/16 09:36:14;;;;;;;57.93;30.63;;;12.30;99.90;;;;;;5073481;28;20465;-68
2021/12/16 09:38:41;;;;;;;54.63;28.83;;;12.30;99.90;;;;;;5073286;28;20413;-68
2021/12/16 09:41:07;;;;;;;55.63;29.20;;;12.30;99.90;;;;;;5074100;28;20411;-69
2021/12/16 09:43:36;;;;;;;52.30;29.60;;;12.40;99.90;;;;;;5073227;28;20420;-69
2021/12/16 09:46:05;;;;;;;52.90;28.43;;;12.40;99.90;;;;;;5074088;28;20420;-69
2021/12/16 09:48:32;;;;;;;51.80;28.00;;;12.40;99.90;;;;;;5074556;28;20415;-69
2021/12/16 09:51:00;;;;;;;52.00;30.60;;;12.30;99.90;;;;;;5073879;28;20436;-69
2021/12/16 09:53:27;;;;;;;57.60;29.70;;;12.40;99.90;;;;;;5074420;28;20411;-68
2021/12/16 09:55:59;;;;;;;67.50;29.50;;;12.40;99.90;;;;;;5074278;28;20462;-68
2021/12/16 09:58:28;;;;;;;58.30;31.13;;;12.40;99.90;;;;;;5073273;28;20391;-69
2021/12/16 10:00:54;;;;;;;56.80;28.27;;;12.40;99.90;;;;;;5074226;28;20423;-68
2021/12/16 10:03:21;;;;;;;59.40;29.07;;;12.40;99.90;;;;;;5074349;28;20498;-68
2021/12/16 10:05:49;;;;;;;56.40;28.47;;;12.40;99.90;;;;;;5073864;28;20807;-68
2021/12/16 10:08:15;;;;;;;55.83;30.77;;;12.50;99.90;;;;;;5072279;28;20757;-68
2021/12/16 10:10:41;;;;;;;64.90;28.27;;;12.40;99.90;;;;;;5074120;28;20533;-68
2021/12/16 10:13:07;;;;;;;59.43;29.87;;;12.40;99.90;;;;;;5073167;28;20417;-68
2021/12/16 10:18:12;;;;;;;54.63;28.70;;;12.40;99.90;;;;;;5071905;28;20874;-69
2021/12/16 10:20:54;;;;;;;62.87;30.00;;;12.40;99.90;;;;;;5073925;28;20463;-68
2021/12/16 10:23:27;;;;;;;57.77;28.50;;;12.40;99.90;;;;;;5073378;28;20427;-69
2021/12/16 10:25:59;;;;;;;58.33;28.97;;;12.40;99.90;;;;;;5074115;28;20396;-68
2021/12/16 10:28:47;;;;;;;60.97;29.77;;;12.50;99.90;;;;;;5073868;28;20403;-69
2021/12/16 10:31:18;;;;;;;52.90;28.63;;;12.50;99.90;;;;;;5071863;28;20929;-69
2021/12/16 10:33:57;;;;;;;59.13;29.17;;;12.50;99.90;;;;;;5074045;28;20405;-68
2021/12/16 10:36:33;;;;;;;52.17;29.33;;;12.50;99.90;;;;;;5073752;28;20401;-69
2021/12/16 10:39:11;;;;;;;57.80;28.10;;;12.70;99.90;;;;;;5072572;28;20902;-69
2021/12/16 10:41:46;;;;;;;57.97;28.23;;;12.60;99.90;;;;;;5072708;28;20395;-68
2021/12/16 10:44:17;;;;;;;59.30;27.37;;;12.50;99.90;;;;;;5072761;28;20461;-68
2021/12/16 10:47:00;;;;;;;52.93;26.60;;;12.60;99.90;;;;;;5072208;28;20411;-69
2021/12/16 10:49:31;;;;;;;57.67;27.63;;;12.60;99.90;;;;;;5073362;28;20445;-68
2021/12/16 10:52:05;;;;;;;51.07;25.13;;;12.50;99.90;;;;;;5072226;28;20399;-68
2021/12/16 10:54:34;;;;;;;59.83;27.63;;;12.60;99.90;;;;;;5073360;28;20408;-68
2021/12/16 10:57:19;;;;;;;60.97;28.13;;;12.60;99.90;;;;;;5072372;28;20492;-71
2021/12/16 10:59:54;;;;;;;56.57;28.37;;;12.60;99.90;;;;;;5071777;28;20411;-68
2021/12/16 11:02:29;;;;;;;51.90;27.07;;;12.60;99.90;;;;;;5071923;28;20449;-68
2021/12/16 11:05:00;;;;;;;54.10;27.37;;;12.60;99.90;;;;;;5072869;28;20408;-68
2021/12/16 11:07:33;;;;;;;57.30;26.50;;;12.60;99.90;;;;;;5073295;28;20888;-68
2021/12/16 11:10:03;;;;;;;48.70;26.53;;;12.60;99.90;;;;;;5072307;28;20916;-71
2021/12/16 11:12:32;;;;;;;53.77;27.63;;;12.60;99.90;;;;;;5073612;28;20753;-68
2021/12/16 11:15:19;;;;;;;62.80;28.67;;;12.60;99.90;;;;;;5073044;28;20415;-68
2021/12/16 11:17:59;;;;;;;54.67;26.67;;;12.60;99.90;;;;;;5072518;28;20907;-68
2021/12/16 11:20:46;;;;;;;59.07;27.37;;;12.60;99.90;;;;;;5071982;28;20474;-69
2021/12/16 11:23:21;;;;;;;50.47;26.97;;;12.60;99.90;;;;;;5072171;28;20416;-69
2021/12/16 11:25:53;;;;;;;49.03;24.93;;;12.60;99.90;;;;;;5072752;28;20414;-68
2021/12/16 11:28:37;;;;;;;54.07;27.10;;;12.60;99.90;;;;;;5072161;28;20432;-68
2021/12/16 11:31:07;;;;;;;45.17;26.00;;;12.70;99.90;;;;;;5072152;28;20475;-69
2021/12/16 11:33:43;;;;;;;53.07;25.37;;;12.70;99.90;;;;;;5073124;28;20415;-68
2021/12/16 11:36:43;;;;;;;48.80;26.77;;;12.70;99.90;;;;;;5072069;28;20425;-69
2021/12/16 11:39:22;;;;;;;48.70;24.83;;;12.70;99.90;;;;;;5072102;28;20405;-69
2021/12/16 11:42:00;;;;;;;44.63;24.87;;;12.80;99.90;;;;;;5072680;28;20403;-68
2021/12/16 11:44:32;;;;;;;49.57;25.87;;;12.70;99.90;;;;;;5072277;28;20451;-68
2021/12/16 11:47:08;;;;;;;52.90;26.00;;;12.70;99.90;;;;;;5070883;28;20773;-68
2021/12/16 11:49:47;;;;;;;51.20;28.03;;;12.80;99.90;;;;;;5071944;28;20518;-68
2021/12/16 11:52:20;;;;;;;51.37;26.77;;;12.80;99.90;;;;;;5074836;28;20941;-68
2021/12/16 11:55:11;;;;;;;54.20;26.10;;;12.80;99.90;;;;;;5078743;28;20406;-68
2021/12/16 11:58:00;;;;;;;47.97;26.70;;;12.80;99.90;;;;;;5067442;28;20754;-68
2021/12/16 12:00:33;;;;;;;47.13;26.53;;;12.80;99.90;;;;;;5078234;28;20406;-68
2021/12/16 12:03:05;;;;;;;47.83;27.00;;;12.80;99.90;;;;;;5079158;28;20983;-68
2021/12/16 12:05:36;;;;;;;51.00;25.73;;;12.90;99.90;;;;;;5079203;28;20407;-68
2021/12/16 12:08:20;;;;;;;50.93;26.83;;;12.90;99.90;;;;;;5078599;28;20416;-68
2021/12/16 12:10:51;;;;;;;46.60;23.80;;;12.90;99.90;;;;;;5078925;28;20447;-68
2021/12/16 12:13:23;;;;;;;46.13;25.40;;;12.80;99.90;;;;;;5078259;28;20507;-69
2021/12/16 12:16:04;;;;;;;43.63;25.10;;;12.90;99.90;;;;;;5078684;28;20423;-68
2021/12/16 12:18:37;;;;;;;45.70;25.23;;;12.90;99.90;;;;;;5078272;28;20716;-68
2021/12/16 12:21:35;;;;;;;48.23;25.00;;;12.90;99.90;;;;;;5078542;28;20853;-71
2021/12/16 12:24:12;;;;;;;47.10;25.70;;;12.90;99.90;;;;;;5078269;28;20423;-68
2021/12/16 12:26:49;;;;;;;46.57;24.67;;;12.90;99.90;;;;;;5078969;28;20414;-68
2021/12/16 12:29:37;;;;;;;48.47;26.73;;;12.90;99.90;;;;;;5078243;28;20474;-68
2021/12/16 12:32:08;;;;;;;48.13;23.77;;;12.90;99.90;;;;;;5078447;28;20933;-68
2021/12/16 12:34:37;;;;;;;43.37;22.53;;;13.00;99.90;;;;;;5077400;28;20412;-68
2021/12/16 12:37:08;;;;;;;47.77;26.63;;;13.00;99.90;;;;;;5079028;28;20411;-68
2021/12/16 12:39:46;;;;;;;47.13;25.97;;;13.00;99.90;;;;;;5079088;28;20413;-68
2021/12/16 12:42:14;;;;;;;52.43;27.70;;;13.00;99.90;;;;;;5077827;28;20479;-69
2021/12/16 12:44:41;;;;;;;50.30;27.57;;;13.00;99.90;;;;;;5078163;28;20459;-68
2021/12/16 12:47:12;;;;;;;52.70;28.40;;;13.00;99.90;;;;;;5077619;28;20422;-68
2021/12/16 12:49:38;;;;;;;43.77;24.93;;;13.00;99.90;;;;;;5077340;28;20682;-68
2021/12/16 12:52:17;;;;;;;49.83;26.23;;;13.10;99.90;;;;;;5078464;28;20534;-68
2021/12/16 12:54:56;;;;;;;49.93;26.83;;;13.10;99.90;;;;;;5078458;28;20406;-69
2021/12/16 12:57:26;;;;;;;48.77;25.23;;;13.10;99.90;;;;;;5077915;28;20396;-68
2021/12/16 12:59:53;;;;;;;49.10;24.73;;;13.20;99.90;;;;;;5078380;28;20424;-68
2021/12/16 13:02:28;;;;;;;46.40;25.63;;;13.10;99.90;;;;;;5077461;28;20416;-68
2021/12/16 13:04:58;;;;;;;45.43;24.57;;;13.10;99.90;;;;;;5074798;28;20453;-68
2021/12/16 13:07:34;;;;;;;47.40;24.63;;;13.20;99.90;;;;;;5074633;28;20397;-68
2021/12/16 13:10:13;;;;;;;45.70;25.07;;;13.10;99.90;;;;;;5075208;28;20467;-68
2021/12/16 13:12:52;;;;;;;47.30;25.10;;;13.10;99.90;;;;;;5075091;28;20389;-68
2021/12/16 13:27:00;;;;;;;47.90;26.13;;;13.10;99.90;;;;;;5074996;28;20450;-69
2021/12/16 13:29:43;;;;;;;49.87;26.53;;;13.10;99.90;;;;;;5073674;28;20442;-69
2021/12/16 13:32:25;;;;;;;46.30;26.80;;;13.10;99.90;;;;;;5073844;28;20482;-68
2021/12/16 13:35:22;;;;;;;43.17;24.43;;;13.10;99.90;;;;;;5074592;28;20455;-67
2021/12/16 13:37:53;;;;;;;47.00;25.87;;;13.20;99.90;;;;;;5073925;28;20410;-67
2021/12/16 13:40:27;;;;;;;39.63;22.23;;;13.20;99.90;;;;;;5073227;28;20417;-67
2021/12/16 13:42:59;;;;;;;43.40;24.07;;;13.20;99.90;;;;;;5074241;28;20415;-67
2021/12/16 13:45:37;;;;;;;43.73;24.77;;;13.20;99.90;;;;;;5073697;28;20899;-68
2021/12/16 14:05:24;;;;;;;47.93;25.70;;;13.10;99.90;;;;;;5074106;28;20400;-67
2021/12/16 14:07:58;;;;;;;49.37;26.00;;;13.10;99.90;;;;;;5074118;28;20451;-67
2021/12/16 14:10:34;;;;;;;47.17;23.63;;;13.10;99.90;;;;;;5073360;28;20578;-68
2021/12/16 14:25:32;;;;;;;42.93;23.20;;;13.10;99.90;;;;;;5073626;28;20408;-67
2021/12/16 14:41:08;;;;;;;44.90;24.83;;;13.20;99.90;;;;;;5073237;28;20405;-66
2021/12/16 14:43:41;;;;;;;44.73;23.53;;;13.10;99.90;;;;;;5072820;28;20417;-67
2021/12/16 14:46:10;;;;;;;41.90;24.43;;;13.10;99.90;;;;;;5072981;28;20417;-67
2021/12/16 14:48:36;;;;;;;42.30;25.40;;;13.10;99.90;;;;;;5072446;28;20731;-67
2021/12/16 14:51:11;;;;;;;43.00;24.47;;;13.10;99.90;;;;;;5071926;28;20539;-67
2021/12/16 14:53:46;;;;;;;41.63;24.27;;;13.10;99.90;;;;;;5072994;28;20402;-67
2021/12/16 14:56:21;;;;;;;47.77;25.77;;;13.10;99.90;;;;;;5072531;28;20421;-71
2021/12/16 14:58:56;;;;;;;48.73;24.60;;;13.10;99.90;;;;;;5073141;28;20542;-67
2021/12/16 15:01:30;;;;;;;44.37;25.60;;;13.00;99.90;;;;;;5072327;28;20507;-67
2021/12/16 15:03:57;;;;;;;43.03;25.37;;;13.00;99.90;;;;;;5071975;28;20758;-68
2021/12/16 15:06:32;;;;;;;44.20;24.43;;;13.00;99.90;;;;;;5070625;28;20755;-67
2021/12/16 15:09:17;;;;;;;39.60;23.73;;;13.00;99.90;;;;;;5072807;28;20482;-67
2021/12/16 15:11:56;;;;;;;42.57;25.30;;;13.00;99.90;;;;;;5057386;28;20413;-67
2021/12/16 15:14:49;;;;;;;42.23;25.27;;;13.00;99.90;;;;;;5071938;28;20916;-67
2021/12/16 15:37:11;;;;;;;36.63;23.63;;;13.00;99.90;;;;;;5060431;28;20755;-67
2021/12/16 15:42:51;;;;;;;38.57;23.23;;;13.00;99.90;;;;;;5070259;28;20459;-68
2021/12/16 15:45:22;;;;;;;43.43;25.20;;;13.00;99.90;;;;;;5069588;28;20880;-71
2021/12/16 15:47:59;;;;;;;39.37;23.13;;;13.00;99.90;;;;;;5069135;28;20426;-67
2021/12/16 15:50:31;;;;;;;37.40;23.00;;;12.90;99.90;;;;;;5070837;28;20939;-67
2021/12/16 15:52:59;;;;;;;38.83;23.50;;;12.90;99.90;;;;;;5071719;28;20495;-67
2021/12/16 15:55:39;;;;;;;44.03;24.80;;;12.90;99.90;;;;;;5069725;28;20916;-68
2021/12/16 15:58:16;;;;;;;44.30;24.53;;;12.90;99.90;;;;;;5071750;28;20475;-65
2021/12/16 16:00:47;;;;;;;37.80;23.50;;;12.90;99.90;;;;;;5070958;28;20480;-66
2021/12/16 16:03:14;;;;;;;36.80;21.80;;;13.00;99.90;;;;;;5071278;28;20534;-65
2021/12/16 16:05:47;;;;;;;38.63;23.47;;;13.00;99.90;;;;;;5070247;28;20487;-65
2021/12/16 16:08:16;;;;;;;40.67;22.20;;;13.00;99.90;;;;;;5071944;28;20421;-65
2021/12/16 16:10:44;;;;;;;41.63;23.40;;;13.00;99.90;;;;;;5053018;28;20447;-65
2021/12/16 16:13:19;;;;;;;38.80;23.93;;;13.00;99.90;;;;;;5070557;28;20470;-65
2021/12/16 16:15:48;;;;;;;40.30;23.20;;;12.90;99.90;;;;;;5071554;28;20497;-65
2021/12/16 16:20:57;;;;;;;42.57;25.20;;;12.90;99.90;;;;;;5065895;28;20780;-66
2021/12/16 16:23:24;;;;;;;41.10;23.50;;;12.90;99.90;;;;;;5069439;28;20423;-66
2021/12/16 16:25:50;;;;;;;38.27;23.33;;;12.90;99.90;;;;;;5070078;28;20442;-65
2021/12/16 16:28:16;;;;;;;41.67;23.00;;;12.80;99.90;;;;;;5071508;28;20513;-65
2021/12/16 16:30:43;;;;;;;42.87;23.10;;;12.90;99.90;;;;;;5065806;28;21004;-65
2021/12/16 16:33:16;;;;;;;44.00;24.83;;;12.90;99.90;;;;;;5064969;28;20563;-65
2021/12/16 16:35:53;;;;;;;42.30;24.03;;;12.80;99.90;;;;;;5070698;28;20421;-65
2021/12/16 16:38:27;;;;;;;41.17;22.17;;;12.80;99.90;;;;;;5070924;28;20431;-69
2021/12/16 16:40:56;;;;;;;42.50;23.53;;;12.80;99.90;;;;;;5075324;28;20780;-65